This is the latest recevied weather packets stored in our database for station/object VA2DG-13. If no packets are shown the sender has not sent any weather packets the latest 10 day(s).
| Time | Temp. | Humidity | Pressure | Rain* | Wind** | Luminosity | Snow |
|---|---|---|---|---|---|---|---|
| 1777718411 | 5.56° C | 83% | 1010.7 hPa | 0 mm | - | - | - |
| 1777717811 | 5.56° C | 82% | 1010.6 hPa | 0 mm | - | - | - |
| 1777717211 | 5° C | 82% | 1010.5 hPa | 0 mm | - | - | - |
| 1777716611 | 5° C | 81% | 1010.5 hPa | 0 mm | - | - | - |
| 1777713610 | 5.56° C | 79% | 1010.2 hPa | 0 mm | - | - | - |
| 1777710310 | 6.11° C | 73% | 1010.2 hPa | 0 mm | - | - | - |
| 1777709710 | 6.11° C | 72% | 1010.2 hPa | 0 mm | - | - | - |
| 1777708210 | 6.67° C | 69% | 1010.1 hPa | 0 mm | - | - | - |
| 1777707911 | 6.67° C | 69% | 1009.9 hPa | 0 mm | - | - | - |
| 1777707610 | 6.67° C | 70% | 1009.9 hPa | 0 mm | - | - | - |
| 1777707010 | 6.67° C | 71% | 1010 hPa | 0 mm | - | - | - |
| 1777704310 | 6.11° C | 69% | 1009.7 hPa | 0 mm | - | - | - |
| 1777701011 | 6.11° C | 67% | 1009.7 hPa | 0 mm | - | - | - |
| 1777700411 | 6.11° C | 67% | 1009.8 hPa | 0 mm | - | - | - |
| 1777698010 | 6.67° C | 61% | 1009.7 hPa | 0 mm | - | - | - |
| 1777697711 | 6.67° C | 62% | 1009.7 hPa | 0 mm | - | - | - |
| 1777696511 | 5.56° C | 62% | 1009.8 hPa | 0 mm | - | - | - |
| 1777692611 | 5.56° C | 59% | 1009.7 hPa | 0 mm | - | - | - |
| 1777688710 | 5.56° C | 57% | 1009.7 hPa | 0 mm | - | - | - |
| 1777688110 | 5.56° C | 57% | 1009.7 hPa | 0 mm | - | - | - |
| 1777687510 | 5.56° C | 56% | 1009.8 hPa | 0 mm | - | - | - |
| 1777685109 | 6.67° C | 52% | 1009.9 hPa | 0 mm | - | - | - |
| 1777683911 | 6.11° C | 56% | 1009.7 hPa | 0 mm | - | - | - |
| 1777683011 | 6.11° C | 53% | 1009.5 hPa | 0 mm | - | - | - |
| 1777681510 | 7.78° C | 49% | 1009.5 hPa | 0 mm | - | - | - |
* Rain latest hour (hover to see other rain measurements)
** Current wind speed in m/s (hover to see current wind gust speed)